createdAt,value
2022-07-27T00:01:21.082Z,99.90
2022-07-27T00:03:49.623Z,99.90
2022-07-27T00:06:18.102Z,99.90
2022-07-27T00:08:46.442Z,99.90
2022-07-27T00:11:16.067Z,99.90
2022-07-27T00:13:45.153Z,99.90
2022-07-27T00:16:13.809Z,99.90
2022-07-27T00:18:42.231Z,99.90
2022-07-27T00:21:11.522Z,99.90
2022-07-27T00:23:40.682Z,99.90
2022-07-27T00:26:09.520Z,99.90
2022-07-27T00:28:39.208Z,99.90
2022-07-27T00:31:07.696Z,99.90
2022-07-27T00:33:36.050Z,99.90
2022-07-27T00:36:04.928Z,99.90
2022-07-27T00:38:33.337Z,99.90
2022-07-27T00:41:02.170Z,99.90
2022-07-27T00:43:31.052Z,99.90
2022-07-27T00:46:04.605Z,99.90
2022-07-27T00:48:33.970Z,99.90
2022-07-27T00:51:02.348Z,99.90
2022-07-27T00:53:30.874Z,99.90
2022-07-27T00:56:00.520Z,99.90
2022-07-27T00:58:31.185Z,99.90
2022-07-27T01:01:00.979Z,99.90
2022-07-27T01:03:30.443Z,99.90
2022-07-27T01:06:00.273Z,99.90
2022-07-27T01:08:31.136Z,99.90
2022-07-27T01:11:00.834Z,99.90
2022-07-27T01:13:31.469Z,99.90
2022-07-27T01:16:01.761Z,99.90
2022-07-27T01:18:33.309Z,99.90
2022-07-27T01:21:04.849Z,99.90
2022-07-27T01:23:35.488Z,99.90
2022-07-27T01:26:05.453Z,99.90
2022-07-27T01:28:33.762Z,99.90
2022-07-27T01:31:02.561Z,99.90
2022-07-27T01:33:30.967Z,99.90
2022-07-27T01:35:59.497Z,99.90
2022-07-27T01:38:28.071Z,99.90
2022-07-27T01:40:58.035Z,99.90
2022-07-27T01:43:26.615Z,99.90
2022-07-27T01:45:56.066Z,99.90
2022-07-27T01:48:24.713Z,99.90
2022-07-27T01:50:53.491Z,99.90
2022-07-27T01:53:22.791Z,99.90
2022-07-27T01:55:52.646Z,99.90
2022-07-27T01:58:22.258Z,99.90
2022-07-27T02:00:50.956Z,99.90
2022-07-27T02:03:19.981Z,99.90
2022-07-27T02:05:48.874Z,99.90
2022-07-27T02:08:17.326Z,99.90
2022-07-27T02:11:08.876Z,99.90
2022-07-27T02:13:38.731Z,99.90
2022-07-27T02:16:16.705Z,99.90
2022-07-27T02:18:48.594Z,99.90
2022-07-27T02:21:17.634Z,99.90
2022-07-27T02:23:47.012Z,99.90
2022-07-27T02:26:15.478Z,99.90
2022-07-27T02:28:45.086Z,99.90
2022-07-27T02:31:13.437Z,99.90
2022-07-27T02:33:41.779Z,99.90
2022-07-27T02:36:10.168Z,99.90
2022-07-27T02:38:38.981Z,99.90
2022-07-27T02:41:07.578Z,99.90
2022-07-27T02:43:35.879Z,99.90
2022-07-27T02:46:06.019Z,99.90
2022-07-27T02:48:34.467Z,99.90
2022-07-27T02:51:03.278Z,99.90
2022-07-27T02:53:32.360Z,99.90
2022-07-27T02:56:00.671Z,99.90
2022-07-27T02:58:29.685Z,99.90
2022-07-27T03:00:58.858Z,99.90
2022-07-27T03:03:35.949Z,99.90
2022-07-27T03:06:05.779Z,99.90
2022-07-27T03:08:34.650Z,99.90
2022-07-27T03:11:03.077Z,99.90
2022-07-27T03:13:31.709Z,99.90
2022-07-27T03:16:00.080Z,99.90
2022-07-27T03:18:30.321Z,99.90
2022-07-27T03:20:59.139Z,99.90
2022-07-27T03:23:27.423Z,99.90
2022-07-27T03:25:55.739Z,99.90
2022-07-27T03:28:24.051Z,99.90
2022-07-27T03:30:52.612Z,99.90
2022-07-27T03:33:20.936Z,99.90
2022-07-27T03:35:50.907Z,99.90
2022-07-27T03:38:19.999Z,99.90
2022-07-27T03:40:49.017Z,99.90
2022-07-27T03:43:17.598Z,99.90
2022-07-27T03:45:46.294Z,99.90
2022-07-27T03:48:14.611Z,99.90
2022-07-27T03:50:42.964Z,99.90
2022-07-27T03:53:12.834Z,99.90
2022-07-27T03:55:41.214Z,99.90
2022-07-27T03:58:09.562Z,99.90
2022-07-27T04:00:37.845Z,99.90
2022-07-27T04:03:06.627Z,99.90
2022-07-27T04:05:35.146Z,99.90
2022-07-27T04:08:03.997Z,99.90
2022-07-27T04:10:33.741Z,99.90
2022-07-27T04:13:03.511Z,99.90
2022-07-27T04:15:33.972Z,99.90
2022-07-27T04:18:02.290Z,99.90
2022-07-27T04:20:30.752Z,99.90
2022-07-27T04:22:59.563Z,99.90
2022-07-27T04:25:27.938Z,99.90
2022-07-27T04:27:58.600Z,99.90
2022-07-27T04:30:27.096Z,99.90
2022-07-27T04:32:55.688Z,99.90
2022-07-27T04:35:26.685Z,99.90
2022-07-27T04:37:59.506Z,99.90
2022-07-27T04:40:33.615Z,99.90
2022-07-27T04:43:06.171Z,99.90
2022-07-27T04:45:36.041Z,99.90
2022-07-27T04:48:06.871Z,99.90
2022-07-27T04:50:40.974Z,99.90
2022-07-27T04:53:10.451Z,99.90
2022-07-27T04:55:42.798Z,99.90
2022-07-27T04:58:14.363Z,99.90
2022-07-27T05:00:43.680Z,99.90
2022-07-27T05:03:13.190Z,99.90
2022-07-27T05:05:49.822Z,99.90
2022-07-27T05:08:20.741Z,99.90
2022-07-27T05:10:49.814Z,99.90
2022-07-27T05:13:20.084Z,99.90
2022-07-27T05:15:54.905Z,99.90
2022-07-27T05:18:25.415Z,99.90
2022-07-27T05:20:54.325Z,99.90
2022-07-27T05:23:22.850Z,99.90
2022-07-27T05:25:51.146Z,99.90
2022-07-27T05:28:21.018Z,99.90
2022-07-27T05:30:49.687Z,99.90
2022-07-27T05:33:18.399Z,99.90
2022-07-27T05:35:47.002Z,99.90
2022-07-27T05:38:15.365Z,99.90
2022-07-27T05:40:45.429Z,99.90
2022-07-27T05:43:14.684Z,99.90
2022-07-27T05:45:44.955Z,99.90
2022-07-27T05:48:13.580Z,99.90
2022-07-27T05:50:41.876Z,99.90
2022-07-27T05:53:10.521Z,99.90
2022-07-27T05:55:39.419Z,99.90
2022-07-27T05:58:27.739Z,99.90
2022-07-27T06:00:57.955Z,99.90
2022-07-27T06:03:26.916Z,99.90
2022-07-27T06:06:15.354Z,99.90
2022-07-27T06:08:42.920Z,99.90
2022-07-27T06:11:11.899Z,99.90
2022-07-27T06:13:42.271Z,99.90
2022-07-27T06:16:12.645Z,99.90
2022-07-27T06:18:40.989Z,99.90
2022-07-27T06:21:10.631Z,99.90
2022-07-27T06:23:39.478Z,99.90
2022-07-27T06:26:07.999Z,99.90
2022-07-27T06:28:36.306Z,99.90
2022-07-27T06:31:04.953Z,99.90
2022-07-27T06:33:36.914Z,99.90
2022-07-27T06:36:08.298Z,99.90
2022-07-27T06:38:37.615Z,99.90
2022-07-27T06:41:06.258Z,98.90
2022-07-27T06:43:34.759Z,98.20
2022-07-27T06:46:03.968Z,96.50
2022-07-27T06:48:32.647Z,94.40
2022-07-27T06:51:02.302Z,94.50
2022-07-27T06:53:36.307Z,94.20
2022-07-27T06:56:08.335Z,94.70
2022-07-27T06:58:37.523Z,94.70
2022-07-27T07:01:06.037Z,94.90
2022-07-27T07:03:34.531Z,94.80
2022-07-27T07:06:04.582Z,95.80
2022-07-27T07:08:32.903Z,95.60
2022-07-27T07:11:01.272Z,95.20
2022-07-27T07:13:33.064Z,95.10
2022-07-27T07:16:03.661Z,94.50
2022-07-27T07:18:31.961Z,93.40
2022-07-27T07:21:01.602Z,93.40
2022-07-27T07:23:31.740Z,94.10
2022-07-27T07:26:00.022Z,93.60
2022-07-27T07:28:28.948Z,93.70
2022-07-27T07:30:57.518Z,94.20
2022-07-27T07:33:26.898Z,94.40
2022-07-27T07:36:12.836Z,94.70
2022-07-27T07:38:44.249Z,93.90
2022-07-27T07:41:13.880Z,93.50
2022-07-27T07:43:42.480Z,94.80
2022-07-27T07:46:11.190Z,94.50
2022-07-27T07:48:40.032Z,92.50
2022-07-27T07:51:08.888Z,91.50
2022-07-27T07:53:41.437Z,92.60
2022-07-27T07:56:11.622Z,92.10
2022-07-27T07:58:39.913Z,92.20
2022-07-27T08:01:08.251Z,91.40
2022-07-27T08:03:36.974Z,92.40
2022-07-27T08:06:06.433Z,92.30
2022-07-27T08:08:35.219Z,93.10
2022-07-27T08:11:03.797Z,92.10
2022-07-27T08:13:33.407Z,92.10
2022-07-27T08:16:02.132Z,92.50
2022-07-27T08:18:30.957Z,92.90
2022-07-27T08:20:59.819Z,93.00
2022-07-27T08:23:28.680Z,91.40
2022-07-27T08:25:56.959Z,91.70
2022-07-27T08:28:25.263Z,90.80
2022-07-27T08:30:55.044Z,90.80
2022-07-27T08:33:23.551Z,91.20
2022-07-27T08:35:52.724Z,90.20
2022-07-27T08:38:21.088Z,90.40
2022-07-27T08:40:51.571Z,89.40
2022-07-27T08:43:25.282Z,90.00
2022-07-27T08:45:59.913Z,88.70
2022-07-27T08:48:31.434Z,89.80
2022-07-27T08:51:00.635Z,89.00
2022-07-27T08:53:52.101Z,88.30
2022-07-27T08:56:22.116Z,87.90
2022-07-27T08:58:50.561Z,83.80
2022-07-27T09:01:21.412Z,84.60
2022-07-27T09:03:49.895Z,82.80
2022-07-27T09:06:43.903Z,82.10
2022-07-27T09:09:15.035Z,83.70
2022-07-27T09:11:45.270Z,83.10
2022-07-27T09:14:14.422Z,84.00
2022-07-27T09:17:28.891Z,85.30
2022-07-27T09:19:32.304Z,85.70
2022-07-27T09:22:05.158Z,85.10
2022-07-27T09:24:46.938Z,85.00
2022-07-27T09:27:16.059Z,85.70
2022-07-27T09:29:44.414Z,82.10
2022-07-27T09:32:17.644Z,84.50
2022-07-27T09:34:46.453Z,83.40
2022-07-27T09:37:25.682Z,81.10
2022-07-27T09:40:14.187Z,80.70
2022-07-27T09:45:35.674Z,79.40
2022-07-27T09:48:19.322Z,79.60
2022-07-27T09:51:03.662Z,79.90
2022-07-27T09:53:49.187Z,81.70
2022-07-27T09:56:18.053Z,79.60
2022-07-27T09:58:49.543Z,80.10
2022-07-27T10:01:21.887Z,82.60
2022-07-27T10:03:54.136Z,82.20
2022-07-27T10:06:25.198Z,83.30
2022-07-27T10:08:56.590Z,81.90
2022-07-27T10:11:26.552Z,80.90
2022-07-27T10:13:57.039Z,81.00
2022-07-27T10:16:30.470Z,82.60
2022-07-27T10:19:09.974Z,83.40
2022-07-27T10:21:45.653Z,81.90
2022-07-27T10:24:28.719Z,78.20
2022-07-27T10:26:57.503Z,78.80
2022-07-27T10:29:26.583Z,78.10
2022-07-27T10:32:01.638Z,81.60
2022-07-27T10:34:38.297Z,80.50
2022-07-27T10:37:12.193Z,79.30
2022-07-27T10:39:43.878Z,78.70
2022-07-27T10:42:26.089Z,81.50
2022-07-27T10:45:02.272Z,81.00
2022-07-27T10:47:35.723Z,83.50
2022-07-27T10:50:32.329Z,83.80
2022-07-27T10:53:05.488Z,82.90
2022-07-27T10:55:46.085Z,84.00
2022-07-27T10:58:50.307Z,81.90
2022-07-27T11:01:23.790Z,84.50
2022-07-27T11:03:59.304Z,85.10
2022-07-27T11:06:37.795Z,83.30
2022-07-27T11:12:00.095Z,81.90
2022-07-27T11:14:31.673Z,82.00
2022-07-27T11:19:55.362Z,83.40
2022-07-27T11:25:23.054Z,81.70
2022-07-27T11:27:52.643Z,81.40
2022-07-27T11:30:27.061Z,84.20
2022-07-27T11:32:57.316Z,84.60
2022-07-27T11:35:26.036Z,84.20
2022-07-27T11:38:07.675Z,85.00
2022-07-27T11:40:59.380Z,85.50
2022-07-27T11:43:38.598Z,85.70
2022-07-27T11:46:15.728Z,85.70
2022-07-27T11:49:06.683Z,86.00
2022-07-27T11:51:37.606Z,86.50
2022-07-27T11:54:10.614Z,86.10
2022-07-27T11:56:43.767Z,86.90
2022-07-27T11:59:16.800Z,85.70
2022-07-27T12:01:49.483Z,83.60
2022-07-27T12:04:25.646Z,84.60
2022-07-27T12:07:10.611Z,86.10
2022-07-27T12:09:48.796Z,86.40
2022-07-27T12:12:19.043Z,85.90
2022-07-27T12:14:51.023Z,85.80
2022-07-27T12:17:28.865Z,84.00
2022-07-27T12:20:05.843Z,84.70
2022-07-27T12:22:39.144Z,85.00
2022-07-27T12:25:16.492Z,86.40
2022-07-27T12:27:57.223Z,86.90
2022-07-27T12:30:34.871Z,84.10
2022-07-27T12:33:06.313Z,84.70
2022-07-27T12:35:46.254Z,85.00
2022-07-27T12:38:15.324Z,84.40
2022-07-27T12:40:48.268Z,85.00
2022-07-27T12:43:21.388Z,86.70
2022-07-27T12:45:51.733Z,87.40
2022-07-27T12:48:23.771Z,88.40
2022-07-27T12:51:02.086Z,86.90
2022-07-27T12:53:32.493Z,87.00
2022-07-27T12:56:07.797Z,88.40
2022-07-27T12:58:37.539Z,88.50
2022-07-27T13:01:06.904Z,87.80
2022-07-27T13:03:36.737Z,88.60
2022-07-27T13:06:10.866Z,87.40
2022-07-27T13:08:41.882Z,88.70
2022-07-27T13:11:13.671Z,89.30
2022-07-27T13:13:42.491Z,89.30
2022-07-27T13:16:11.052Z,87.80
2022-07-27T13:18:40.071Z,86.90
2022-07-27T13:21:08.988Z,87.40
2022-07-27T13:23:37.638Z,87.30
2022-07-27T13:26:06.313Z,88.00
2022-07-27T13:28:36.415Z,87.50
2022-07-27T13:31:05.167Z,86.50
2022-07-27T13:33:33.448Z,87.00
2022-07-27T13:36:01.879Z,86.50
2022-07-27T13:38:30.242Z,86.30
2022-07-27T13:40:59.099Z,85.70
2022-07-27T13:43:27.499Z,86.30
2022-07-27T13:45:57.218Z,87.00
2022-07-27T13:48:25.612Z,86.80
2022-07-27T13:50:54.045Z,86.90
2022-07-27T13:53:22.642Z,87.30
2022-07-27T13:55:51.014Z,86.90
2022-07-27T13:58:19.953Z,87.40
2022-07-27T14:00:49.616Z,86.60
2022-07-27T14:03:19.550Z,86.80
2022-07-27T14:05:49.641Z,86.60
2022-07-27T14:08:20.942Z,85.30
2022-07-27T14:10:51.282Z,84.70
2022-07-27T14:13:21.500Z,83.90
2022-07-27T14:15:54.063Z,82.70
2022-07-27T14:18:32.065Z,81.60
2022-07-27T14:21:03.963Z,82.80
2022-07-27T14:23:34.264Z,83.10
2022-07-27T14:26:04.953Z,82.90
2022-07-27T14:28:34.382Z,82.20
2022-07-27T14:31:04.516Z,81.70
2022-07-27T14:33:37.322Z,82.60
2022-07-27T14:36:07.252Z,83.10
2022-07-27T14:38:36.803Z,82.60
2022-07-27T14:41:05.675Z,84.30
2022-07-27T14:43:34.082Z,84.30
2022-07-27T14:46:02.456Z,85.10
2022-07-27T14:49:04.694Z,84.80
2022-07-27T14:51:20.941Z,84.40
2022-07-27T14:53:50.043Z,82.70
2022-07-27T14:56:18.954Z,83.00
2022-07-27T14:58:47.334Z,83.90
2022-07-27T15:01:16.923Z,81.60
2022-07-27T15:03:46.919Z,81.50
2022-07-27T15:06:15.244Z,80.80
2022-07-27T15:08:45.061Z,81.20
2022-07-27T15:11:13.413Z,80.50
2022-07-27T15:13:41.710Z,81.50
2022-07-27T15:16:11.860Z,80.10
2022-07-27T15:18:40.354Z,79.50
2022-07-27T15:21:13.539Z,79.80
2022-07-27T15:23:44.978Z,79.90
2022-07-27T15:26:13.909Z,81.10
2022-07-27T15:28:43.609Z,81.50
2022-07-27T15:31:13.565Z,81.90
2022-07-27T15:33:42.828Z,81.30
2022-07-27T15:36:11.614Z,81.60
2022-07-27T15:39:02.295Z,82.30
2022-07-27T15:41:31.290Z,80.80
2022-07-27T15:44:00.090Z,82.40
2022-07-27T15:46:29.008Z,82.40
2022-07-27T15:48:57.700Z,81.20
2022-07-27T15:51:26.367Z,81.30
2022-07-27T15:53:55.812Z,80.40
2022-07-27T15:56:26.413Z,82.00
2022-07-27T15:58:54.734Z,81.60
2022-07-27T16:01:23.546Z,82.50
2022-07-27T16:04:04.116Z,83.30
2022-07-27T16:06:38.624Z,84.80
2022-07-27T16:09:09.056Z,84.50
2022-07-27T16:11:39.195Z,85.00
2022-07-27T16:14:07.598Z,85.20
2022-07-27T16:16:36.288Z,85.10
2022-07-27T16:19:12.871Z,85.30
2022-07-27T16:21:54.224Z,86.00
2022-07-27T16:24:26.432Z,86.00
2022-07-27T16:26:56.161Z,86.30
2022-07-27T16:29:24.578Z,87.10
2022-07-27T16:31:57.842Z,85.40
2022-07-27T16:34:27.793Z,85.80
2022-07-27T16:36:57.200Z,85.50
2022-07-27T16:39:26.671Z,86.20
2022-07-27T16:41:58.240Z,86.60
2022-07-27T16:44:26.664Z,87.30
2022-07-27T16:46:55.032Z,86.90
2022-07-27T16:49:23.459Z,87.80
2022-07-27T16:52:05.510Z,87.80
2022-07-27T16:54:39.066Z,88.20
2022-07-27T16:57:10.586Z,88.60
2022-07-27T16:59:41.557Z,88.80
2022-07-27T17:02:10.633Z,89.70
2022-07-27T17:04:39.906Z,90.10
2022-07-27T17:07:12.512Z,90.20
2022-07-27T17:09:41.676Z,90.40
2022-07-27T17:12:11.408Z,90.40
2022-07-27T17:14:45.978Z,90.60
2022-07-27T17:17:14.904Z,90.40
2022-07-27T17:19:43.278Z,90.30
2022-07-27T17:22:11.654Z,90.30
2022-07-27T17:24:40.007Z,90.40
2022-07-27T17:27:08.954Z,90.50
2022-07-27T17:29:38.567Z,90.70
2022-07-27T17:32:07.264Z,90.20
2022-07-27T17:34:35.878Z,90.50
2022-07-27T17:37:04.415Z,90.70
2022-07-27T17:39:32.715Z,90.60
2022-07-27T17:42:01.040Z,90.50
2022-07-27T17:44:29.876Z,90.20
2022-07-27T17:47:00.930Z,90.10
2022-07-27T17:49:30.260Z,90.40
2022-07-27T17:51:59.484Z,90.70
2022-07-27T17:54:28.365Z,91.10
2022-07-27T17:56:56.679Z,91.30
2022-07-27T17:59:37.747Z,91.40
2022-07-27T18:02:08.887Z,91.50
2022-07-27T18:04:39.628Z,91.80
2022-07-27T18:07:08.876Z,91.80
2022-07-27T18:09:37.932Z,91.90
2022-07-27T18:12:08.359Z,92.00
2022-07-27T18:14:38.285Z,92.30
2022-07-27T18:17:08.551Z,92.40
2022-07-27T18:19:36.890Z,92.40
2022-07-27T18:22:05.167Z,92.40
2022-07-27T18:24:35.500Z,92.60
2022-07-27T18:27:03.819Z,92.80
2022-07-27T18:29:32.257Z,93.00
2022-07-27T18:32:00.562Z,93.40
2022-07-27T18:34:31.047Z,93.60
2022-07-27T18:36:59.881Z,94.10
2022-07-27T18:39:33.891Z,94.40
2022-07-27T18:42:03.609Z,94.80
2022-07-27T18:44:38.392Z,95.00
2022-07-27T18:47:08.002Z,95.40
2022-07-27T18:49:37.657Z,95.60
2022-07-27T18:52:06.844Z,96.10
2022-07-27T18:54:35.339Z,96.50
2022-07-27T18:57:03.971Z,97.10
2022-07-27T18:59:32.428Z,97.60
2022-07-27T19:02:03.937Z,98.30
2022-07-27T19:04:32.812Z,98.30
2022-07-27T19:07:02.840Z,98.70
2022-07-27T19:09:34.447Z,99.30
2022-07-27T19:12:07.606Z,99.90
2022-07-27T19:14:38.890Z,99.90
2022-07-27T19:17:07.994Z,99.90
2022-07-27T19:19:42.954Z,99.90
2022-07-27T19:22:12.684Z,99.90
2022-07-27T19:24:40.986Z,99.90
2022-07-27T19:27:09.422Z,99.90
2022-07-27T19:29:38.053Z,99.90
2022-07-27T19:32:09.666Z,99.90
2022-07-27T19:34:38.760Z,99.90
2022-07-27T19:37:07.461Z,99.90
2022-07-27T19:39:57.424Z,99.90
2022-07-27T19:42:26.571Z,99.90
2022-07-27T19:44:56.278Z,99.90
2022-07-27T19:47:25.355Z,99.90
2022-07-27T19:49:54.089Z,99.90
2022-07-27T19:52:22.375Z,99.90
2022-07-27T19:54:52.340Z,99.90
2022-07-27T19:57:21.192Z,99.90
2022-07-27T19:59:55.629Z,99.90
2022-07-27T20:02:25.197Z,99.90
2022-07-27T20:04:53.897Z,99.90
2022-07-27T20:07:22.256Z,99.90
2022-07-27T20:09:51.909Z,99.90
2022-07-27T20:12:20.404Z,99.90
2022-07-27T20:14:49.399Z,99.90
2022-07-27T20:17:18.133Z,99.90
2022-07-27T20:19:46.735Z,99.90
2022-07-27T20:22:15.078Z,99.90
2022-07-27T20:24:43.480Z,99.90
2022-07-27T20:27:13.519Z,99.90
2022-07-27T20:29:42.120Z,99.90
2022-07-27T20:32:10.451Z,99.90
2022-07-27T20:34:39.438Z,99.90
2022-07-27T20:37:08.622Z,99.90
2022-07-27T20:39:37.502Z,99.90
2022-07-27T20:42:05.928Z,99.90
2022-07-27T20:44:35.676Z,99.90
2022-07-27T20:47:04.025Z,99.90
2022-07-27T20:49:32.390Z,99.90
2022-07-27T20:52:02.038Z,99.90
2022-07-27T20:54:30.740Z,99.90
2022-07-27T20:56:59.654Z,99.90
2022-07-27T20:59:28.322Z,99.90
2022-07-27T21:01:58.502Z,99.90
2022-07-27T21:04:27.768Z,99.90
2022-07-27T21:06:56.562Z,99.90
2022-07-27T21:09:25.088Z,99.90
2022-07-27T21:11:58.508Z,99.90
2022-07-27T21:14:27.008Z,99.90
2022-07-27T21:16:55.352Z,99.90
2022-07-27T21:19:25.778Z,99.90
2022-07-27T21:21:54.095Z,99.90
2022-07-27T21:24:22.841Z,99.90
2022-07-27T21:26:52.841Z,99.90
2022-07-27T21:29:23.016Z,99.90
2022-07-27T21:31:52.171Z,99.90
2022-07-27T21:34:21.713Z,99.90
2022-07-27T21:36:51.424Z,99.90
2022-07-27T21:39:19.966Z,99.90
2022-07-27T21:41:48.939Z,99.90
2022-07-27T21:44:17.605Z,99.90
2022-07-27T21:46:46.285Z,99.90
2022-07-27T21:49:14.660Z,99.90
2022-07-27T21:51:43.183Z,99.90
2022-07-27T21:54:13.317Z,99.90
2022-07-27T21:56:50.362Z,99.90
2022-07-27T21:59:19.532Z,99.90
2022-07-27T22:01:47.844Z,99.90
2022-07-27T22:04:18.489Z,99.90
2022-07-27T22:06:46.863Z,99.90
2022-07-27T22:09:16.754Z,99.90
2022-07-27T22:11:46.701Z,99.90
2022-07-27T22:14:15.733Z,99.90
2022-07-27T22:16:44.360Z,99.90
2022-07-27T22:19:12.836Z,99.90
2022-07-27T22:21:41.663Z,99.90
2022-07-27T22:24:10.343Z,99.90
2022-07-27T22:26:40.819Z,99.90
2022-07-27T22:29:09.912Z,99.90
2022-07-27T22:31:38.232Z,99.90
2022-07-27T22:34:06.595Z,99.90
2022-07-27T22:36:34.875Z,99.90
2022-07-27T22:39:03.202Z,99.90
2022-07-27T22:41:31.518Z,99.90
2022-07-27T22:44:01.116Z,99.90
2022-07-27T22:46:30.828Z,99.90
2022-07-27T22:48:59.466Z,99.90
2022-07-27T22:51:49.674Z,99.90
2022-07-27T22:54:16.739Z,99.90
2022-07-27T22:56:45.753Z,99.90
2022-07-27T22:59:15.539Z,99.90
2022-07-27T23:01:46.019Z,99.90
2022-07-27T23:04:17.595Z,99.90
2022-07-27T23:06:46.643Z,99.90
2022-07-27T23:09:15.660Z,99.90
2022-07-27T23:11:44.926Z,99.90
2022-07-27T23:14:15.556Z,99.90
2022-07-27T23:16:44.839Z,99.90
2022-07-27T23:19:13.535Z,99.90
2022-07-27T23:21:42.339Z,99.90
2022-07-27T23:24:14.178Z,99.90
2022-07-27T23:26:42.936Z,99.90
2022-07-27T23:29:11.523Z,99.90
2022-07-27T23:31:41.239Z,99.90
2022-07-27T23:34:09.708Z,99.90
2022-07-27T23:36:38.291Z,99.90
2022-07-27T23:39:06.971Z,99.90
2022-07-27T23:41:35.246Z,99.90
2022-07-27T23:44:03.838Z,99.90
2022-07-27T23:46:32.298Z,99.90
2022-07-27T23:49:02.153Z,99.90
2022-07-27T23:51:31.339Z,99.90
2022-07-27T23:53:59.641Z,99.90
2022-07-27T23:56:28.110Z,99.90
2022-07-27T23:58:56.528Z,99.90
